Time;durP1;ratioP1;P1;durP2;ratioP2;P2;SDS_P1;SDS_P2;PMS_P1;PMS_P2;Temp;Humidity;BMP_temperature;BMP_pressure;BME280_temperature;BME280_humidity;BME280_pressure;Samples;Min_cycle;Max_cycle;Signal;HPM_P1;HPM_P2
2021/09/30 00:01:45;;;;;;;;;0.00;0.00;;;;;25.63;37.53;102700.91;5026787;28;47206;-67
2021/09/30 00:04:10;;;;;;;;;1.00;1.00;;;;;25.63;37.69;102703.56;5061491;28;45478;-67
2021/09/30 00:06:35;;;;;;;;;0.00;0.00;;;;;25.61;37.75;102695.72;5061208;28;45228;-67
2021/09/30 00:09:01;;;;;;;;;0.00;0.00;;;;;25.62;37.53;102694.75;5056973;28;45226;-67
2021/09/30 00:11:28;;;;;;;;;0.00;0.00;;;;;25.62;37.82;102699.22;5074945;28;46917;-67
2021/09/30 00:13:59;;;;;;;;;0.67;0.00;;;;;25.61;37.74;102701.06;5072361;27;45295;-67
2021/09/30 00:46:25;;;;;;;;;0.00;0.00;;;;;25.56;37.89;102683.88;5016363;28;45515;-67
2021/09/30 00:52:02;;;;;;;;;0.67;0.67;;;;;25.56;37.67;102683.88;4965446;28;45506;-67
2021/09/30 02:22:02;;;;;;;;;1.33;0.00;;;;;25.49;37.60;102639.22;5007791;28;45294;-67
2021/09/30 02:24:17;;;;;;;;;1.00;1.00;;;;;25.45;37.39;102634.38;5053372;28;45459;-67
2021/09/30 02:29:33;;;;;;;;;1.00;1.00;;;;;25.50;37.65;102645.38;5074664;28;45332;-67
2021/09/30 02:59:09;;;;;;;;;0.00;0.00;;;;;25.47;37.45;102654.53;5076354;28;45326;-66
2021/09/30 03:01:36;;;;;;;;;0.00;0.00;;;;;25.48;37.44;102658.00;5074916;27;45576;-67
2021/09/30 03:04:03;;;;;;;;;1.00;0.00;;;;;25.47;37.40;102653.69;5075132;27;45245;-67
2021/09/30 03:06:29;;;;;;;;;0.00;0.00;;;;;25.45;37.41;102645.84;5074781;27;47658;-67
2021/09/30 03:08:59;;;;;;;;;0.67;0.67;;;;;25.39;37.64;102636.69;5073672;28;45638;-67
2021/09/30 03:11:26;;;;;;;;;0.00;0.00;;;;;25.46;37.46;102642.19;5076902;27;45397;-66
2021/09/30 03:13:56;;;;;;;;;0.00;0.00;;;;;25.45;37.60;102655.69;5074866;27;45300;-65
2021/09/30 03:19:33;;;;;;;;;0.67;0.67;;;;;25.45;37.60;102651.16;5073273;28;45518;-67
2021/09/30 03:22:13;;;;;;;;;0.00;0.00;;;;;25.45;37.53;102650.38;5074652;27;45479;-67
2021/09/30 03:24:40;;;;;;;;;0.00;0.00;;;;;25.45;37.45;102645.03;5074732;27;45267;-66
2021/09/30 03:27:06;;;;;;;;;0.00;0.00;;;;;25.42;37.74;102640.03;5057199;28;45513;-66
2021/09/30 03:29:32;;;;;;;;;1.00;0.00;;;;;25.43;37.76;102645.19;5076154;28;45549;-67
2021/09/30 03:31:58;;;;;;;;;2.00;0.00;;;;;25.43;37.61;102645.19;5074100;28;45512;-67
2021/09/30 03:34:24;;;;;;;;;2.00;0.00;;;;;25.43;37.46;102649.66;5074506;27;45423;-67
2021/09/30 03:36:50;;;;;;;;;2.00;0.00;;;;;25.38;37.39;102644.81;5074307;27;47122;-67
2021/09/30 03:39:22;;;;;;;;;1.67;0.33;;;;;25.45;37.57;102653.03;5074697;27;45359;-67
2021/09/30 03:41:48;;;;;;;;;0.33;0.33;;;;;25.44;37.56;102646.84;5075496;27;45468;-67
2021/09/30 03:44:13;;;;;;;;;0.00;0.00;;;;;25.44;37.41;102652.19;5075629;28;45472;-67
2021/09/30 03:46:39;;;;;;;;;0.00;0.00;;;;;25.45;37.39;102639.69;5073782;27;48434;-67
2021/09/30 03:49:10;;;;;;;;;1.00;0.67;;;;;25.45;37.50;102642.38;5074331;27;45324;-67
2021/09/30 03:52:00;;;;;;;;;0.00;0.00;;;;;25.44;37.25;102641.53;5074381;27;45362;-66
2021/09/30 03:59:28;;;;;;;;;0.00;0.00;;;;;25.45;37.26;102647.69;5075570;28;45368;-67
2021/09/30 04:01:57;;;;;;;;;0.67;0.67;;;;;25.45;37.18;102645.84;5074039;27;45425;-67
2021/09/30 04:04:31;;;;;;;;;0.00;0.00;;;;;25.45;37.26;102655.69;5074217;27;45449;-66
2021/09/30 04:06:58;;;;;;;;;1.67;0.67;;;;;25.45;37.27;102653.84;5072270;27;46136;-67
2021/09/30 04:09:27;;;;;;;;;0.00;0.00;;;;;25.43;37.51;102650.50;5073983;27;45504;-67
2021/09/30 04:11:54;;;;;;;;;0.33;0.33;;;;;25.44;37.32;102651.34;5074178;28;45532;-67
2021/09/30 04:14:20;;;;;;;;;0.00;0.00;;;;;25.45;37.39;102655.69;5075740;28;45324;-66
2021/09/30 04:16:47;;;;;;;;;0.33;0.33;;;;;25.45;37.26;102650.38;5073845;27;45539;-67
2021/09/30 04:19:15;;;;;;;;;0.00;0.00;;;;;25.35;37.28;102639.81;5073789;27;45444;-66
2021/09/30 04:21:40;;;;;;;;;0.67;0.00;;;;;25.44;37.17;102646.00;5074079;28;45497;-67
2021/09/30 04:24:06;;;;;;;;;0.00;0.00;;;;;25.42;37.28;102651.50;5057629;28;45501;-66
2021/09/30 04:26:31;;;;;;;;;0.00;0.00;;;;;25.43;37.28;102655.00;5075727;28;46971;-67
2021/09/30 04:28:56;;;;;;;;;1.67;0.00;;;;;25.34;37.34;102639.00;5073391;27;45306;-67
2021/09/30 04:31:23;;;;;;;;;0.00;0.00;;;;;25.41;37.35;102649.84;5073928;28;45450;-67
2021/09/30 04:33:50;;;;;;;;;1.00;0.00;;;;;25.42;37.12;102642.69;5072028;27;45457;-67
2021/09/30 04:36:15;;;;;;;;;0.33;0.33;;;;;25.30;37.54;102621.63;5073572;27;46077;-67
2021/09/30 04:38:40;;;;;;;;;0.00;0.00;;;;;25.40;37.37;102637.50;5074194;27;45355;-67
2021/09/30 04:41:06;;;;;;;;;1.00;1.00;;;;;25.40;37.38;102635.66;5074204;27;45405;-66
2021/09/30 04:43:31;;;;;;;;;1.00;0.00;;;;;25.40;37.51;102627.69;5060511;27;45519;-67
2021/09/30 04:45:56;;;;;;;;;0.00;0.00;;;;;25.39;37.34;102628.69;5060956;28;46183;-67
2021/09/30 04:48:22;;;;;;;;;1.67;1.00;;;;;25.39;37.29;102631.34;5057596;28;45335;-67
2021/09/30 04:50:47;;;;;;;;;1.00;0.00;;;;;25.39;37.28;102631.34;5058721;28;45338;-66
2021/09/30 04:53:12;;;;;;;;;0.67;0.33;;;;;25.38;37.18;102636.81;5059701;27;45902;-66
2021/09/30 04:55:38;;;;;;;;;0.00;0.00;;;;;25.37;37.35;102633.31;5060789;28;46302;-67
2021/09/30 04:58:03;;;;;;;;;2.33;1.67;;;;;25.28;37.26;102624.47;5060689;28;45448;-67
2021/09/30 05:00:29;;;;;;;;;0.00;0.00;;;;;25.38;37.17;102642.16;5059247;28;45380;-67
2021/09/30 05:02:54;;;;;;;;;0.33;0.33;;;;;25.38;37.41;102639.50;5058467;28;45438;-67
2021/09/30 05:05:19;;;;;;;;;2.00;1.00;;;;;25.38;37.22;102647.47;5057452;27;47173;-66
2021/09/30 05:07:45;;;;;;;;;1.67;0.00;;;;;25.39;37.38;102642.00;5060952;28;45299;-67
2021/09/30 05:10:12;;;;;;;;;0.67;0.67;;;;;25.38;37.31;102653.66;5061153;28;45438;-67
2021/09/30 05:12:38;;;;;;;;;0.67;0.33;;;;;25.35;37.04;102648.63;5063605;28;46321;-67
2021/09/30 05:15:04;;;;;;;;;0.00;0.00;;;;;25.37;37.02;102657.28;5059958;28;46292;-67
2021/09/30 05:17:29;;;;;;;;;0.00;0.00;;;;;25.38;37.35;102666.13;5061480;28;45335;-66
2021/09/30 05:19:54;;;;;;;;;2.00;0.33;;;;;25.39;36.92;102659.81;5064228;28;45663;-67
2021/09/30 05:22:20;;;;;;;;;1.00;1.00;;;;;25.39;37.28;102654.50;5069234;28;45493;-67
2021/09/30 05:24:46;;;;;;;;;2.00;0.00;;;;;25.38;37.21;102643.00;5074887;27;46275;-67
2021/09/30 05:27:11;;;;;;;;;1.00;0.00;;;;;25.39;37.25;102657.16;5076332;27;45545;-66
2021/09/30 05:29:36;;;;;;;;;0.33;0.33;;;;;25.29;37.35;102634.13;5078567;27;45323;-67
2021/09/30 05:32:02;;;;;;;;;1.00;1.00;;;;;25.38;37.08;102648.31;5076779;27;45248;-67
2021/09/30 05:34:27;;;;;;;;;1.00;1.00;;;;;25.38;37.30;102640.34;5073376;28;47203;-67
2021/09/30 05:36:53;;;;;;;;;0.25;0.00;;;;;25.38;37.28;102640.34;5076539;27;45455;-67
2021/09/30 05:39:18;;;;;;;;;0.00;0.00;;;;;25.38;37.02;102640.34;5076923;27;45400;-67
2021/09/30 05:41:48;;;;;;;;;0.50;0.00;;;;;25.38;37.18;102640.34;5077595;27;45251;-67
2021/09/30 05:44:15;;;;;;;;;0.33;0.33;;;;;25.36;37.11;102641.47;5077534;28;46270;-68
2021/09/30 05:46:44;;;;;;;;;2.50;0.75;;;;;25.37;37.49;102638.66;5075168;27;45585;-67
2021/09/30 05:49:10;;;;;;;;;0.33;0.33;;;;;25.38;37.42;102643.00;5074703;28;45468;-67
2021/09/30 05:51:37;;;;;;;;;1.00;1.00;;;;;25.26;37.02;102615.81;5074646;27;45311;-67
2021/09/30 05:54:02;;;;;;;;;1.00;1.00;;;;;25.37;37.55;102635.97;5076023;27;46243;-67
2021/09/30 05:56:28;;;;;;;;;1.33;1.00;;;;;25.37;37.33;102637.84;5077539;28;45402;-67
2021/09/30 05:58:54;;;;;;;;;3.00;2.00;;;;;25.37;37.68;102635.16;5076986;27;47411;-68
2021/09/30 06:01:43;;;;;;;;;2.00;0.00;;;;;25.27;37.67;102619.28;5075856;27;45433;-69
2021/09/30 06:14:47;;;;;;;;;1.00;1.00;;;;;25.38;37.65;102620.84;5073962;28;45386;-68
2021/09/30 06:17:12;;;;;;;;;2.75;0.00;;;;;25.32;37.90;102611.66;5076086;28;45227;-67
2021/09/30 06:19:38;;;;;;;;;1.67;1.00;;;;;25.40;37.57;102627.69;5072492;28;45419;-68
2021/09/30 06:22:06;;;;;;;;;2.67;1.33;;;;;25.43;37.51;102625.69;5066565;28;45448;-68
2021/09/30 06:24:33;;;;;;;;;1.00;1.00;;;;;25.42;37.43;102622.22;5072003;28;47103;-68
2021/09/30 06:26:58;;;;;;;;;0.00;0.00;;;;;25.43;37.43;102623.84;5067073;27;45897;-68
2021/09/30 06:29:23;;;;;;;;;1.00;1.00;;;;;25.42;37.26;102622.22;5061754;28;45386;-68
2021/09/30 06:31:49;;;;;;;;;1.00;1.00;;;;;25.43;37.35;102620.34;5063196;28;45497;-68
2021/09/30 06:34:15;;;;;;;;;1.00;0.50;;;;;25.43;37.08;102628.34;5062751;28;46961;-67
2021/09/30 06:36:40;;;;;;;;;0.33;0.00;;;;;25.45;37.60;102634.38;5062952;28;45327;-67
2021/09/30 06:39:06;;;;;;;;;1.00;1.00;;;;;25.40;37.50;102632.16;5058407;28;45431;-68
2021/09/30 06:41:32;;;;;;;;;0.00;0.00;;;;;25.42;37.21;102638.19;5061530;28;45438;-68
2021/09/30 06:43:57;;;;;;;;;1.00;1.00;;;;;25.43;37.34;102636.34;5062488;28;46865;-68
2021/09/30 06:46:24;;;;;;;;;2.00;0.67;;;;;25.42;37.12;102627.53;5062762;28;45438;-68
2021/09/30 06:48:49;;;;;;;;;1.67;0.00;;;;;25.39;37.50;102627.84;5078620;27;45347;-68
2021/09/30 06:51:15;;;;;;;;;0.00;0.00;;;;;25.42;37.44;102634.69;5057887;28;45686;-68
2021/09/30 06:53:40;;;;;;;;;2.00;1.00;;;;;25.42;37.37;102638.19;5060042;28;47099;-68
2021/09/30 06:56:08;;;;;;;;;3.50;2.00;;;;;25.42;37.19;102632.88;5062558;27;45395;-68
2021/09/30 06:58:40;;;;;;;;;1.33;1.00;;;;;25.41;37.38;102631.19;5062601;28;45309;-68
2021/09/30 07:01:08;;;;;;;;;1.00;1.00;;;;;25.39;37.39;102625.19;5062639;28;45355;-68
2021/09/30 07:03:33;;;;;;;;;2.33;1.00;;;;;25.41;37.45;102631.19;5061402;28;46330;-68
2021/09/30 07:05:59;;;;;;;;;1.00;1.00;;;;;25.40;37.23;102638.34;5075081;27;45339;-67
2021/09/30 07:08:24;;;;;;;;;1.00;1.00;;;;;25.42;37.49;102635.53;5072329;27;45466;-67
2021/09/30 07:10:49;;;;;;;;;3.67;0.00;;;;;25.46;37.38;102628.03;5073462;27;45504;-68
2021/09/30 07:13:15;;;;;;;;;1.00;1.00;;;;;25.45;37.16;102611.22;5074598;27;46208;-68
2021/09/30 07:15:40;;;;;;;;;1.00;1.00;;;;;25.52;37.14;102616.75;5075080;27;45547;-67
2021/09/30 07:18:10;;;;;;;;;4.00;1.00;;;;;25.57;36.92;102621.59;5075135;27;45295;-68
2021/09/30 07:20:35;;;;;;;;;2.33;0.00;;;;;25.62;36.95;102619.28;5072616;28;45553;-68
2021/09/30 07:23:01;;;;;;;;;1.67;1.67;;;;;25.67;37.23;102618.78;5072462;27;45442;-68
2021/09/30 07:25:26;;;;;;;;;3.67;0.33;;;;;25.70;37.29;102624.63;5074825;27;45408;-68
2021/09/30 07:27:51;;;;;;;;;3.67;1.33;;;;;25.76;37.18;102631.19;5074788;27;45384;-68
2021/09/30 07:30:17;;;;;;;;;2.33;1.00;;;;;25.77;37.11;102627.50;5073689;27;45381;-68
2021/09/30 07:32:42;;;;;;;;;1.00;1.00;;;;;25.85;36.98;102626.69;5075959;27;45262;-68
2021/09/30 07:35:08;;;;;;;;;0.00;0.00;;;;;25.88;37.06;102639.69;5075065;28;45515;-67
2021/09/30 07:37:33;;;;;;;;;1.00;1.00;;;;;25.93;36.85;102636.53;5074311;27;45571;-67
2021/09/30 07:39:59;;;;;;;;;2.67;1.00;;;;;25.96;36.66;102639.72;5074476;27;45615;-68
2021/09/30 07:42:24;;;;;;;;;1.00;1.00;;;;;26.02;36.74;102640.88;5074436;27;45795;-68
2021/09/30 07:44:50;;;;;;;;;1.00;1.00;;;;;26.07;36.55;102635.88;5073446;28;45272;-68
2021/09/30 07:47:15;;;;;;;;;1.00;1.00;;;;;26.07;36.65;102622.56;5075798;28;45279;-68
2021/09/30 07:49:40;;;;;;;;;1.00;1.00;;;;;26.20;36.54;102628.41;5072480;27;45572;-67
2021/09/30 07:52:06;;;;;;;;;1.00;1.00;;;;;26.22;36.76;102621.91;5073598;27;47147;-68
2021/09/30 07:54:31;;;;;;;;;0.67;0.67;;;;;26.29;36.59;102620.25;5073357;27;45308;-68
2021/09/30 07:56:57;;;;;;;;;1.67;0.00;;;;;26.33;36.38;102617.25;5074346;27;45950;-67
2021/09/30 07:59:22;;;;;;;;;2.00;1.00;;;;;26.32;36.31;102605.75;5075708;28;45472;-68
2021/09/30 08:01:47;;;;;;;;;0.67;0.00;;;;;26.34;36.20;102608.22;5072562;27;46138;-68
2021/09/30 08:04:14;;;;;;;;;2.00;1.00;;;;;26.34;36.41;102598.41;5073917;27;45497;-68
2021/09/30 08:06:40;;;;;;;;;0.00;0.00;;;;;26.33;36.31;102601.25;5073991;27;45349;-68
2021/09/30 08:09:05;;;;;;;;;0.00;0.00;;;;;26.29;36.23;102598.91;5074200;27;47682;-68
2021/09/30 08:11:31;;;;;;;;;2.00;1.00;;;;;26.29;36.55;102598.06;5075777;27;45491;-68
2021/09/30 08:13:56;;;;;;;;;1.00;1.00;;;;;26.23;36.26;102594.22;5073974;27;45252;-68
2021/09/30 08:16:24;;;;;;;;;2.00;0.00;;;;;26.27;36.42;102602.72;5074079;27;45504;-68
2021/09/30 08:18:50;;;;;;;;;0.33;0.33;;;;;26.22;36.17;102603.25;5074044;27;45564;-68
2021/09/30 08:21:17;;;;;;;;;0.00;0.00;;;;;26.20;36.56;102599.91;5073714;27;46260;-68
2021/09/30 08:23:43;;;;;;;;;0.67;0.67;;;;;26.18;36.44;102605.41;5075570;27;45362;-68
2021/09/30 08:26:09;;;;;;;;;1.00;1.00;;;;;26.17;36.12;102605.56;5073484;28;45535;-68
2021/09/30 08:28:36;;;;;;;;;1.00;1.00;;;;;26.15;36.48;102603.06;5072234;27;45501;-68
2021/09/30 08:31:03;;;;;;;;;1.00;1.00;;;;;26.14;36.35;102597.91;5073028;27;46549;-68
2021/09/30 08:33:28;;;;;;;;;1.33;0.00;;;;;26.13;36.33;102583.72;5074132;27;45388;-68
2021/09/30 08:35:53;;;;;;;;;1.00;1.00;;;;;26.14;36.18;102590.72;5073427;28;45482;-67
2021/09/30 08:38:19;;;;;;;;;1.67;1.00;;;;;26.18;36.35;102600.06;5075650;28;45526;-68
2021/09/30 08:40:46;;;;;;;;;1.00;1.00;;;;;26.22;36.07;102599.72;5073239;27;45770;-68
2021/09/30 08:43:11;;;;;;;;;0.25;0.25;;;;;26.25;36.20;102599.41;5077050;27;45353;-68
2021/09/30 08:45:37;;;;;;;;;2.00;0.00;;;;;26.29;36.24;102598.91;5077331;27;45388;-68
2021/09/30 08:48:05;;;;;;;;;2.00;2.00;;;;;26.33;36.31;102604.75;5077512;27;45634;-68
2021/09/30 08:50:38;;;;;;;;;2.67;1.00;;;;;26.34;36.17;102606.41;5079226;27;46073;-68
2021/09/30 08:53:03;;;;;;;;;1.33;1.00;;;;;26.36;35.96;102612.41;5075895;28;45569;-68
2021/09/30 08:55:28;;;;;;;;;0.00;0.00;;;;;26.39;36.27;102608.56;5076980;27;45480;-67
2021/09/30 08:57:54;;;;;;;;;0.00;0.00;;;;;26.41;35.98;102607.38;5077286;27;45506;-68
2021/09/30 09:00:20;;;;;;;;;1.00;1.00;;;;;26.37;35.98;102600.72;5076976;27;46273;-68
2021/09/30 09:02:51;;;;;;;;;2.00;0.00;;;;;26.42;36.20;102602.91;5078108;27;45679;-69
2021/09/30 09:05:21;;;;;;;;;0.67;0.67;;;;;26.41;36.13;102602.06;5078514;28;45242;-67
2021/09/30 09:07:55;;;;;;;;;1.00;1.00;;;;;26.44;36.16;102603.59;5075232;27;45558;-67
2021/09/30 09:10:23;;;;;;;;;0.00;0.00;;;;;26.43;36.39;102601.91;5076397;27;45461;-68
2021/09/30 09:13:24;;;;;;;;;1.50;0.00;;;;;26.38;36.01;102589.06;5076598;27;45414;-69
2021/09/30 09:15:58;;;;;;;;;1.00;1.00;;;;;26.43;35.81;102585.06;5015368;28;45439;-67
2021/09/30 09:18:43;;;;;;;;;0.00;0.00;;;;;26.45;36.19;102583.06;5012364;28;45569;-66
2021/09/30 09:21:22;;;;;;;;;1.00;1.00;;;;;26.45;36.01;102581.25;4999930;28;45394;-68
2021/09/30 09:24:01;;;;;;;;;1.00;1.00;;;;;26.45;36.21;102586.59;5014897;28;45354;-68
2021/09/30 09:26:40;;;;;;;;;2.00;0.00;;;;;26.45;36.13;102583.91;5016076;28;45537;-68
2021/09/30 09:29:09;;;;;;;;;0.00;0.00;;;;;26.43;35.82;102577.88;5009982;28;45427;-68
2021/09/30 09:31:38;;;;;;;;;3.33;1.00;;;;;26.43;35.98;102579.72;5014889;28;46749;-68
2021/09/30 09:34:27;;;;;;;;;0.00;0.00;;;;;26.41;35.85;102564.69;4997916;28;45541;-68
2021/09/30 09:36:55;;;;;;;;;1.00;1.00;;;;;26.41;35.96;102561.22;5009485;28;45507;-68
2021/09/30 09:39:35;;;;;;;;;0.33;0.33;;;;;26.41;36.02;102559.34;5015387;28;45444;-68
2021/09/30 09:42:14;;;;;;;;;0.00;0.00;;;;;26.41;36.02;102562.03;5013669;28;46193;-68
2021/09/30 09:45:06;;;;;;;;;0.67;0.00;;;;;26.41;35.89;102571.88;5011824;28;45382;-68
2021/09/30 09:47:37;;;;;;;;;0.67;0.67;;;;;26.40;35.96;102565.72;4999855;28;45447;-68
2021/09/30 09:50:16;;;;;;;;;2.00;0.67;;;;;26.41;35.89;102561.22;5009227;28;45491;-68
2021/09/30 09:53:01;;;;;;;;;1.00;0.00;;;;;26.40;36.11;102548.88;5074961;28;45582;-68
2021/09/30 09:55:33;;;;;;;;;1.00;1.00;;;;;26.39;36.01;102558.69;5076169;27;45466;-68
2021/09/30 09:58:05;;;;;;;;;1.00;1.00;;;;;26.41;35.67;102558.56;5074697;27;45454;-68
2021/09/30 10:00:37;;;;;;;;;4.33;2.33;;;;;26.36;36.09;102537.69;5075942;27;45360;-68
2021/09/30 10:03:25;;;;;;;;;0.00;0.00;;;;;26.42;35.90;102554.84;5075755;27;45493;-68
2021/09/30 10:05:51;;;;;;;;;1.00;1.00;;;;;26.43;36.02;102548.53;5072681;28;45369;-68
2021/09/30 10:08:16;;;;;;;;;0.00;0.00;;;;;26.45;35.84;102548.38;5059673;28;45620;-67
2021/09/30 10:10:45;;;;;;;;;1.00;1.00;;;;;26.45;36.11;102551.06;5060874;28;45591;-68
2021/09/30 10:13:11;;;;;;;;;0.67;0.67;;;;;26.44;35.96;102552.88;5062960;28;47199;-68
2021/09/30 10:15:38;;;;;;;;;0.00;0.00;;;;;26.43;36.11;102545.88;5062752;28;45673;-68
2021/09/30 10:18:05;;;;;;;;;2.00;0.67;;;;;26.45;36.13;102535.88;5059209;28;45384;-68
2021/09/30 10:20:32;;;;;;;;;0.00;0.00;;;;;26.44;35.85;102528.06;5061857;28;45375;-68
2021/09/30 10:22:58;;;;;;;;;0.67;0.00;;;;;26.43;36.02;102527.19;5062935;28;47397;-68
2021/09/30 10:25:32;;;;;;;;;2.00;0.67;;;;;26.44;36.02;102522.72;5062946;28;45649;-68
2021/09/30 10:28:00;;;;;;;;;0.33;0.33;;;;;26.42;35.95;102517.50;5063213;28;45234;-68
2021/09/30 10:30:43;;;;;;;;;0.33;0.33;;;;;26.43;35.98;102515.66;5060901;28;45411;-68
2021/09/30 10:33:40;;;;;;;;;0.00;0.00;;;;;26.43;35.91;102518.34;5059568;28;46231;-68
2021/09/30 10:36:58;;;;;;;;;1.00;0.67;;;;;26.41;35.93;102522.00;5074971;28;45328;-68
2021/09/30 10:39:30;;;;;;;;;1.00;1.00;;;;;26.42;36.05;102525.50;5032022;28;45538;-68
2021/09/30 10:42:02;;;;;;;;;0.33;0.00;;;;;26.41;35.98;102521.19;5032925;28;45399;-68
2021/09/30 10:44:36;;;;;;;;;0.67;0.33;;;;;26.41;35.84;102521.19;5015392;28;46093;-68
2021/09/30 10:47:08;;;;;;;;;2.00;2.00;;;;;26.36;36.05;102515.53;5030877;28;45448;-68
2021/09/30 10:49:52;;;;;;;;;0.33;0.33;;;;;26.42;36.23;102525.50;5028125;28;45404;-68
2021/09/30 10:52:32;;;;;;;;;1.67;1.33;;;;;26.41;35.81;102519.31;5031124;28;45551;-68
2021/09/30 10:55:00;;;;;;;;;1.00;1.00;;;;;26.41;36.04;102518.53;5030834;28;46591;-68
2021/09/30 10:57:36;;;;;;;;;0.00;0.00;;;;;26.41;35.92;102526.53;5032460;28;45457;-68
2021/09/30 11:00:03;;;;;;;;;1.00;0.00;;;;;26.39;35.81;102526.69;5032073;28;45588;-68
2021/09/30 11:02:29;;;;;;;;;0.67;0.00;;;;;26.38;36.21;102524.19;5034445;28;45404;-68
2021/09/30 11:05:20;;;;;;;;;1.00;1.00;;;;;26.29;35.86;102505.53;5031863;28;45935;-67
2021/09/30 11:08:23;;;;;;;;;0.00;0.00;;;;;26.36;36.17;102515.53;5031982;28;45347;-68
2021/09/30 11:11:07;;;;;;;;;0.33;0.00;;;;;26.35;35.93;102512.03;5032279;28;45526;-68
2021/09/30 11:13:36;;;;;;;;;1.00;1.00;;;;;26.23;35.85;102478.69;5032168;28;45376;-68
2021/09/30 11:16:12;;;;;;;;;2.67;0.33;;;;;26.33;36.10;102497.19;5062304;28;46611;-68
2021/09/30 11:18:44;;;;;;;;;0.00;0.00;;;;;26.33;36.01;102492.69;5074832;27;45530;-68
2021/09/30 11:21:27;;;;;;;;;1.67;0.00;;;;;26.31;35.96;102486.66;5058987;28;45435;-68
2021/09/30 11:23:53;;;;;;;;;2.00;0.00;;;;;26.30;36.01;102482.34;5073069;28;45280;-68
2021/09/30 11:26:18;;;;;;;;;0.33;0.00;;;;;26.29;35.88;102470.84;5074404;28;45501;-68
2021/09/30 11:28:44;;;;;;;;;0.00;0.00;;;;;26.25;36.24;102452.69;5074313;27;45465;-67
2021/09/30 11:31:23;;;;;;;;;0.67;0.67;;;;;26.27;35.85;102451.50;5074592;27;45720;-68
2021/09/30 11:33:50;;;;;;;;;2.00;1.00;;;;;26.26;35.97;102452.50;5074730;27;45461;-67
2021/09/30 11:36:16;;;;;;;;;0.00;0.00;;;;;26.25;35.79;102453.50;5074653;27;45499;-68
2021/09/30 11:38:43;;;;;;;;;1.00;1.00;;;;;26.24;35.76;102443.84;5075937;27;45541;-67
2021/09/30 11:41:08;;;;;;;;;2.00;1.00;;;;;26.13;35.81;102422.84;5075048;28;45400;-68
2021/09/30 11:43:34;;;;;;;;;1.00;0.00;;;;;26.22;35.93;102437.84;5072157;27;45416;-68
2021/09/30 11:46:23;;;;;;;;;0.33;0.00;;;;;26.22;36.12;102439.66;5072870;27;45571;-68
2021/09/30 11:49:01;;;;;;;;;0.67;0.33;;;;;26.22;35.90;102427.16;5062061;28;45956;-68
2021/09/30 11:51:38;;;;;;;;;0.67;0.67;;;;;26.14;35.67;102417.34;5067740;28;45514;-68
2021/09/30 11:54:08;;;;;;;;;2.00;1.00;;;;;26.20;35.74;102421.19;5057380;28;45660;-68
2021/09/30 11:56:42;;;;;;;;;1.00;1.00;;;;;26.20;35.94;102415.00;5060173;27;46320;-68
2021/09/30 11:59:08;;;;;;;;;0.00;0.00;;;;;26.18;36.04;102416.00;5060640;28;45308;-68
2021/09/30 12:01:46;;;;;;;;;0.00;0.00;;;;;26.18;36.17;102407.16;5067670;28;45447;-67
2021/09/30 12:04:29;;;;;;;;;2.00;0.67;;;;;26.18;35.89;102405.31;5065653;27;45795;-68
2021/09/30 12:06:55;;;;;;;;;1.67;1.67;;;;;26.18;35.74;102394.66;5058138;28;45515;-68
2021/09/30 12:09:21;;;;;;;;;0.33;0.33;;;;;26.12;36.06;102392.69;5058225;28;45399;-68
2021/09/30 12:11:50;;;;;;;;;0.67;0.67;;;;;26.17;36.11;102400.19;5056227;28;45339;-68
2021/09/30 12:14:17;;;;;;;;;1.00;1.00;;;;;26.16;35.73;102390.50;5057581;28;45654;-68
2021/09/30 12:16:57;;;;;;;;;1.67;0.00;;;;;26.12;35.74;102386.53;5057181;28;46183;-68
2021/09/30 12:19:28;;;;;;;;;1.00;1.00;;;;;26.15;35.88;102405.66;5057607;28;45438;-68
2021/09/30 12:21:54;;;;;;;;;3.00;0.00;;;;;26.15;35.87;102404.84;5061297;28;45419;-68
2021/09/30 12:24:19;;;;;;;;;0.33;0.00;;;;;26.14;35.60;102397.84;5058474;28;45442;-68
2021/09/30 12:26:45;;;;;;;;;2.00;0.00;;;;;26.10;35.36;102378.66;5058856;28;45713;-68
2021/09/30 12:29:10;;;;;;;;;0.33;0.33;;;;;26.13;36.10;102391.66;5073244;27;45349;-68
2021/09/30 12:31:35;;;;;;;;;1.00;1.00;;;;;26.12;35.79;102395.34;5069238;27;45303;-68
2021/09/30 12:34:20;;;;;;;;;0.00;0.00;;;;;26.12;35.88;102389.19;5073822;27;45330;-68
2021/09/30 12:36:46;;;;;;;;;1.33;0.00;;;;;26.09;35.97;102385.03;5073714;27;46466;-68
2021/09/30 12:39:11;;;;;;;;;1.67;0.67;;;;;26.10;35.80;102377.84;5073842;27;45560;-68
2021/09/30 12:41:37;;;;;;;;;1.33;1.00;;;;;26.10;35.87;102375.19;5075505;27;45281;-68
2021/09/30 12:44:12;;;;;;;;;0.67;0.00;;;;;26.10;35.83;102367.19;5073579;28;46346;-68
2021/09/30 12:46:46;;;;;;;;;0.33;0.00;;;;;26.07;35.92;102353.16;5073390;28;46066;-68
2021/09/30 12:49:13;;;;;;;;;0.00;0.00;;;;;26.07;35.70;102355.03;5073506;27;45356;-67
2021/09/30 12:51:38;;;;;;;;;1.00;0.00;;;;;25.97;35.92;102336.53;5073599;27;45599;-68
2021/09/30 12:54:03;;;;;;;;;1.00;0.00;;;;;26.07;35.93;102347.03;5071687;28;45502;-68
2021/09/30 12:56:34;;;;;;;;;2.00;1.00;;;;;26.05;35.99;102341.84;5074773;28;46160;-68
2021/09/30 12:59:14;;;;;;;;;2.00;0.00;;;;;26.05;35.74;102339.19;5073367;27;45276;-69
2021/09/30 13:01:40;;;;;;;;;0.00;0.00;;;;;26.04;35.96;102334.03;5071768;27;45264;-68
2021/09/30 13:04:24;;;;;;;;;1.00;0.00;;;;;26.03;35.90;102337.69;5073360;27;45422;-68
2021/09/30 13:06:56;;;;;;;;;0.33;0.33;;;;;25.99;36.02;102328.38;5073156;27;46054;-68
2021/09/30 13:09:25;;;;;;;;;0.00;0.00;;;;;26.02;35.89;102323.53;5073367;27;45378;-68
2021/09/30 13:12:15;;;;;;;;;0.00;0.00;;;;;26.01;35.88;102324.53;5073870;27;45355;-68
2021/09/30 13:14:51;;;;;;;;;1.00;1.00;;;;;26.00;35.85;102316.69;5068222;28;45369;-68
2021/09/30 13:17:18;;;;;;;;;1.00;0.00;;;;;26.00;36.03;102319.34;5074450;28;46231;-68
2021/09/30 13:20:08;;;;;;;;;0.00;0.00;;;;;26.00;35.77;102308.69;5073125;27;45453;-68
2021/09/30 13:22:37;;;;;;;;;1.00;1.00;;;;;25.99;35.68;102312.38;5073200;27;45454;-68
2021/09/30 13:25:08;;;;;;;;;1.00;1.00;;;;;25.95;35.67;102299.38;5072727;27;45503;-68
2021/09/30 13:27:36;;;;;;;;;1.33;1.00;;;;;25.96;35.94;102290.41;5075413;27;48001;-68
2021/09/30 13:30:08;;;;;;;;;0.67;0.00;;;;;25.97;35.86;102291.19;5074691;27;45479;-68
2021/09/30 13:32:35;;;;;;;;;2.00;0.00;;;;;25.95;35.89;102288.72;5062503;27;45489;-68
2021/09/30 13:35:01;;;;;;;;;0.00;0.00;;;;;25.95;35.60;102277.22;5088593;27;45698;-68
2021/09/30 13:37:27;;;;;;;;;0.00;0.00;;;;;25.95;35.80;102278.06;5063240;28;46150;-68
2021/09/30 13:39:57;;;;;;;;;0.33;0.33;;;;;25.95;35.85;102271.88;5063606;28;45280;-68
2021/09/30 13:42:28;;;;;;;;;0.00;0.00;;;;;25.63;36.29;102227.31;5061258;28;45394;-68
2021/09/30 13:44:54;;;;;;;;;0.00;0.00;;;;;25.94;35.77;102275.56;5061358;28;45411;-68
2021/09/30 13:47:20;;;;;;;;;2.00;1.00;;;;;25.93;35.88;102282.72;5062221;28;46136;-68
2021/09/30 13:49:45;;;;;;;;;0.00;0.00;;;;;25.94;35.96;102271.03;5063704;28;45493;-68
2021/09/30 13:52:11;;;;;;;;;0.00;0.00;;;;;25.93;35.90;102266.72;5062706;28;45287;-68
2021/09/30 13:54:38;;;;;;;;;0.67;0.67;;;;;25.93;35.93;102260.56;5061375;28;45368;-68
2021/09/30 13:57:05;;;;;;;;;1.00;0.67;;;;;25.93;35.98;102256.06;5059855;28;45415;-68
2021/09/30 13:59:30;;;;;;;;;0.00;0.00;;;;;25.93;35.86;102252.56;5061876;28;45485;-68
2021/09/30 14:01:55;;;;;;;;;2.00;0.00;;;;;25.93;35.80;102241.91;5063555;28;45344;-68
2021/09/30 14:04:21;;;;;;;;;3.00;3.00;;;;;25.82;35.91;102221.78;5063643;28;45508;-68
2021/09/30 14:06:48;;;;;;;;;0.00;0.00;;;;;25.93;36.06;102231.22;5063326;28;47079;-67
2021/09/30 14:09:14;;;;;;;;;2.00;1.00;;;;;25.92;35.78;102230.41;5059287;28;45414;-68
2021/09/30 14:11:39;;;;;;;;;2.67;0.00;;;;;25.92;35.86;102225.06;5061306;28;45305;-68
2021/09/30 14:14:04;;;;;;;;;1.00;1.00;;;;;25.92;35.85;102226.91;5074639;28;45500;-69
2021/09/30 14:16:30;;;;;;;;;0.67;0.00;;;;;25.91;35.95;102230.59;5075564;27;47081;-67
2021/09/30 14:18:55;;;;;;;;;1.00;0.00;;;;;25.90;35.93;102219.06;5074074;27;45488;-66
2021/09/30 14:21:21;;;;;;;;;0.00;0.00;;;;;25.81;35.63;102204.97;5075826;27;45370;-69
2021/09/30 14:23:47;;;;;;;;;0.00;0.00;;;;;25.90;35.84;102216.41;5076878;27;45463;-69